Time;durP1;ratioP1;P1;durP2;ratioP2;P2;SDS_P1;SDS_P2;PMS_P1;PMS_P2;Temp;Humidity;BMP_temperature;BMP_pressure;BME280_temperature;BME280_humidity;BME280_pressure;Samples;Min_cycle;Max_cycle;Signal;HPM_P1;HPM_P2
2022/08/10 00:01:37;;;;;;;7.72;2.30;;;;;;;18.91;100.00;99505.78;5134951;27;20019;-92
2022/08/10 00:04:03;;;;;;;7.80;2.10;;;;;;;18.71;100.00;99509.88;5142299;27;20027;-93
2022/08/10 00:06:29;;;;;;;8.32;2.30;;;;;;;19.07;100.00;99503.53;5125542;27;20035;-92
2022/08/10 00:08:54;;;;;;;7.03;2.25;;;;;;;19.16;100.00;99502.38;5124636;27;20178;-92
2022/08/10 00:11:20;;;;;;;9.43;2.38;;;;;;;18.71;100.00;99501.09;5117167;27;20961;-93
2022/08/10 00:13:46;;;;;;;7.07;2.03;;;;;;;18.63;100.00;99498.66;5129063;27;20574;-91
2022/08/10 00:16:12;;;;;;;7.63;2.40;;;;;;;18.57;100.00;99506.78;5126219;27;20106;-92
2022/08/10 00:18:38;;;;;;;8.70;2.28;;;;;;;18.77;100.00;99501.78;5128397;27;20581;-93
2022/08/10 00:21:05;;;;;;;9.00;2.30;;;;;;;19.15;100.00;99496.22;5130130;27;20038;-93
2022/08/10 00:23:31;;;;;;;6.70;2.30;;;;;;;18.73;100.00;99500.13;5116603;27;20340;-94
2022/08/10 00:25:56;;;;;;;8.27;2.38;;;;;;;18.77;100.00;99499.13;5122355;27;20019;-93
2022/08/10 00:28:22;;;;;;;8.55;2.30;;;;;;;19.14;100.00;99499.78;5128860;27;20063;-93
2022/08/10 00:30:47;;;;;;;9.20;2.22;;;;;;;19.27;100.00;99495.78;5128497;27;20049;-91
2022/08/10 00:33:13;;;;;;;10.68;2.30;;;;;;;19.12;100.00;99490.16;5128440;27;20452;-91
2022/08/10 00:35:38;;;;;;;8.02;2.55;;;;;;;18.96;100.00;99493.28;5122545;27;20391;-91
2022/08/10 00:38:04;;;;;;;8.25;2.30;;;;;;;18.75;100.00;99493.03;5115083;27;20039;-94
2022/08/10 00:40:29;;;;;;;9.23;2.22;;;;;;;18.67;100.00;99489.75;5130595;27;20031;-93
2022/08/10 00:42:55;;;;;;;8.77;2.05;;;;;;;18.59;100.00;99492.63;5125049;27;20050;-94
2022/08/10 00:45:20;;;;;;;8.98;2.38;;;;;;;18.48;100.00;99486.78;5126219;27;20084;-93
2022/08/10 00:47:46;;;;;;;10.10;2.65;;;;;;;18.49;100.00;99490.31;5130487;27;20035;-92
2022/08/10 00:50:11;;;;;;;9.57;2.53;;;;;;;18.54;100.00;99488.41;5127632;27;20584;-94
2022/08/10 00:52:39;;;;;;;8.25;2.58;;;;;;;18.36;100.00;99489.81;5130282;27;20039;-91
2022/08/10 00:55:05;;;;;;;9.82;2.42;;;;;;;18.37;100.00;99481.84;5124377;27;20130;-93
2022/08/10 00:57:32;;;;;;;10.27;2.45;;;;;;;18.52;100.00;99480.50;5126888;27;20546;-93
2022/08/10 00:59:58;;;;;;;7.75;2.47;;;;;;;18.80;100.00;99482.28;5120800;27;20658;-93
2022/08/10 01:02:24;;;;;;;7.07;2.20;;;;;;;18.59;100.00;99481.19;5122504;27;20026;-92
2022/08/10 01:04:52;;;;;;;7.57;2.40;;;;;;;18.57;100.00;99485.66;5125936;27;20019;-93
2022/08/10 01:07:26;;;;;;;9.02;2.40;;;;;;;18.71;100.00;99480.81;5117419;27;20088;-93
2022/08/10 01:09:54;;;;;;;9.43;2.58;;;;;;;18.77;100.00;99480.63;5125189;27;20517;-91
2022/08/10 01:12:33;;;;;;;8.50;2.30;;;;;;;18.80;100.00;99478.81;5126583;27;20206;-93
2022/08/10 01:15:23;;;;;;;12.48;2.55;;;;;;;18.91;100.00;99469.66;5126426;27;20054;-92
2022/08/10 01:17:57;;;;;;;10.18;2.50;;;;;;;18.49;100.00;99477.94;5125290;27;20023;-92
2022/08/10 01:20:36;;;;;;;8.55;2.58;;;;;;;18.43;100.00;99472.88;5124464;27;20033;-92
2022/08/10 01:23:20;;;;;;;7.63;2.25;;;;;;;18.47;100.00;99469.22;5123480;27;20031;-93
2022/08/10 01:25:48;;;;;;;7.75;2.70;;;;;;;18.77;100.00;99463.91;5127208;27;20035;-93
2022/08/10 01:28:41;;;;;;;7.07;2.35;;;;;;;18.62;100.00;99467.03;5122919;27;20183;-91
2022/08/10 01:31:11;;;;;;;8.88;2.35;;;;;;;18.91;100.00;99466.13;5141960;27;20040;-91
2022/08/10 01:33:46;;;;;;;9.73;2.55;;;;;;;18.91;100.00;99464.38;5127272;27;20035;-94
2022/08/10 01:36:17;;;;;;;8.52;2.40;;;;;;;18.81;100.00;99476.09;5128185;27;20080;-93
2022/08/10 01:39:03;;;;;;;9.88;2.42;;;;;;;18.85;100.00;99463.66;5128323;27;20023;-91
2022/08/10 01:41:44;;;;;;;8.40;2.35;;;;;;;18.77;100.00;99464.78;5114365;27;20115;-91
2022/08/10 01:44:18;;;;;;;7.57;2.35;;;;;;;18.76;100.00;99452.47;5118145;27;20023;-91
2022/08/10 01:46:52;;;;;;;7.53;2.10;;;;;;;18.87;100.00;99461.84;5127345;27;20055;-92
2022/08/10 01:49:21;;;;;;;7.30;2.30;;;;;;;18.77;100.00;99456.84;5120625;27;20035;-91
2022/08/10 01:51:56;;;;;;;8.55;2.33;;;;;;;18.60;100.00;99457.34;5120288;27;20026;-91
2022/08/10 01:54:25;;;;;;;7.78;2.45;;;;;;;18.60;100.00;99451.22;5114746;27;20203;-90
2022/08/10 01:56:57;;;;;;;10.70;2.30;;;;;;;18.76;100.00;99451.59;5128021;27;20035;-90
2022/08/10 01:59:33;;;;;;;9.43;2.30;;;;;;;18.62;100.00;99449.38;5115468;27;20035;-90
2022/08/10 02:02:08;;;;;;;8.13;2.40;;;;;;;19.01;100.00;99450.84;5121920;27;20459;-94
2022/08/10 02:04:38;;;;;;;8.32;2.45;;;;;;;18.96;100.00;99444.88;5121155;27;20688;-92
2022/08/10 02:07:10;;;;;;;9.10;2.50;;;;;;;19.10;100.00;99440.84;5118971;27;20719;-92
2022/08/10 02:09:41;;;;;;;10.30;2.65;;;;;;;19.43;100.00;99447.69;5119267;27;20068;-93
2022/08/10 02:12:10;;;;;;;9.50;2.47;;;;;;;19.22;100.00;99441.34;5125926;27;20483;-95
2022/08/10 02:14:42;;;;;;;12.02;2.88;;;;;;;19.25;100.00;99443.91;5121080;27;20043;-90
2022/08/10 02:17:14;;;;;;;7.78;2.40;;;;;;;19.26;100.00;99446.50;5125288;27;20023;-90
2022/08/10 02:19:43;;;;;;;12.13;2.40;;;;;;;19.34;100.00;99448.00;5124139;27;20067;-90
2022/08/10 02:22:10;;;;;;;10.70;2.90;;;;;;;19.30;100.00;99456.97;5118128;27;20043;-90
2022/08/10 02:24:41;;;;;;;9.45;2.72;;;;;;;19.20;100.00;99445.81;5124882;27;20019;-92
2022/08/10 02:27:11;;;;;;;8.63;2.60;;;;;;;19.16;100.00;99446.84;5128844;27;20031;-91
2022/08/10 02:29:40;;;;;;;7.93;2.55;;;;;;;19.23;100.00;99454.53;5126378;27;20045;-92
2022/08/10 02:32:07;;;;;;;10.55;2.50;;;;;;;19.22;100.00;99449.28;5108117;27;20028;-92
2022/08/10 02:34:38;;;;;;;12.05;2.40;;;;;;;19.23;100.00;99451.88;5115706;27;20027;-91
2022/08/10 02:37:05;;;;;;;8.43;2.63;;;;;;;19.34;100.00;99453.28;5117642;27;20043;-93
2022/08/10 02:39:32;;;;;;;7.75;2.47;;;;;;;19.16;100.00;99445.06;5125517;27;20038;-92
2022/08/10 02:42:04;;;;;;;10.85;2.85;;;;;;;19.20;100.00;99451.13;5125392;27;20114;-92
2022/08/10 02:44:48;;;;;;;11.38;2.60;;;;;;;19.27;100.00;99452.63;5117004;27;20037;-91
2022/08/10 02:47:31;;;;;;;8.43;2.63;;;;;;;19.25;100.00;99444.75;5126287;27;20027;-92
2022/08/10 02:50:06;;;;;;;10.63;2.70;;;;;;;19.31;100.00;99445.47;5126527;27;20027;-92
2022/08/10 02:52:45;;;;;;;9.68;2.70;;;;;;;19.32;100.00;99448.06;5110567;27;20570;-91
2022/08/10 02:55:21;;;;;;;10.90;2.55;;;;;;;19.34;100.00;99442.72;5117365;28;20130;-91
2022/08/10 02:57:53;;;;;;;8.52;2.42;;;;;;;19.09;100.00;99439.13;5122238;27;20023;-92
2022/08/10 03:00:19;;;;;;;9.25;2.60;;;;;;;19.05;100.00;99444.53;5123822;27;20027;-91
2022/08/10 03:02:50;;;;;;;11.25;2.65;;;;;;;18.98;100.00;99448.31;5126358;27;20023;-92
2022/08/10 03:05:18;;;;;;;8.02;2.70;;;;;;;19.13;100.00;99449.59;5121508;28;20043;-92
2022/08/10 03:08:05;;;;;;;7.57;2.55;;;;;;;19.23;100.00;99456.28;5122491;28;20067;-91
2022/08/10 03:10:35;;;;;;;9.40;2.53;;;;;;;19.22;100.00;99452.78;5124660;27;20038;-91
2022/08/10 03:13:05;;;;;;;9.90;2.90;;;;;;;18.91;100.00;99451.16;5116775;28;20106;-90
2022/08/10 03:15:35;;;;;;;10.32;2.50;;;;;;;18.71;100.00;99450.91;5125047;28;20100;-91
2022/08/10 03:18:01;;;;;;;8.43;2.30;;;;;;;18.94;100.00;99458.09;5117714;27;20048;-91
2022/08/10 03:20:34;;;;;;;9.57;2.58;;;;;;;18.75;100.00;99449.88;5125986;28;20104;-93
2022/08/10 03:23:02;;;;;;;7.70;2.70;;;;;;;18.77;100.00;99445.41;5125350;28;20031;-92
2022/08/10 03:25:28;;;;;;;14.63;2.58;;;;;;;18.38;100.00;99451.84;5125013;28;20027;-91
2022/08/10 03:27:56;;;;;;;9.63;2.92;;;;;;;18.58;100.00;99447.78;5121809;28;20490;-92
2022/08/10 03:30:21;;;;;;;9.05;3.05;;;;;;;18.93;100.00;99448.47;5120668;28;20045;-91
2022/08/10 03:32:49;;;;;;;7.82;2.80;;;;;;;18.57;100.00;99443.41;5114973;28;20028;-92
2022/08/10 03:35:16;;;;;;;8.65;3.00;;;;;;;18.75;100.00;99445.44;5124907;28;20046;-92
2022/08/10 03:37:41;;;;;;;10.63;3.00;;;;;;;18.83;100.00;99444.34;5115567;28;20034;-91
2022/08/10 03:40:08;;;;;;;15.00;3.25;;;;;;;18.82;100.00;99445.28;5123233;27;20142;-92
2022/08/10 03:42:37;;;;;;;9.10;3.25;;;;;;;18.90;100.00;99444.16;5127310;27;20132;-91
2022/08/10 03:45:04;;;;;;;9.57;3.20;;;;;;;18.77;100.00;99448.03;5118264;27;20102;-90
2022/08/10 03:47:32;;;;;;;9.23;3.55;;;;;;;18.66;100.00;99452.81;5126098;27;20019;-92
2022/08/10 03:50:00;;;;;;;9.07;2.67;;;;;;;18.63;100.00;99450.25;5128666;27;20023;-91
2022/08/10 03:52:26;;;;;;;10.32;2.97;;;;;;;18.42;100.00;99450.84;5124742;27;20027;-92
2022/08/10 03:54:52;;;;;;;9.07;2.92;;;;;;;18.35;100.00;99457.25;5119753;27;20051;-92
2022/08/10 03:57:22;;;;;;;12.20;3.20;;;;;;;18.54;100.00;99447.00;5115552;27;20395;-92
2022/08/10 03:59:48;;;;;;;10.57;3.20;;;;;;;18.67;100.00;99447.47;5122682;27;20031;-92
2022/08/10 04:02:15;;;;;;;12.18;2.95;;;;;;;18.77;100.00;99442.75;5120810;27;20490;-92
2022/08/10 04:04:40;;;;;;;10.35;3.25;;;;;;;18.74;100.00;99451.66;5125371;27;20031;-92
2022/08/10 04:07:07;;;;;;;8.93;3.22;;;;;;;18.74;100.00;99449.00;5121486;27;20039;-92
2022/08/10 04:09:34;;;;;;;10.65;3.03;;;;;;;18.75;100.00;99450.75;5125850;27;20074;-93
2022/08/10 04:12:00;;;;;;;8.32;3.08;;;;;;;18.58;100.00;99450.41;5130047;27;20030;-92
2022/08/10 04:14:26;;;;;;;8.45;3.13;;;;;;;18.77;100.00;99453.31;5121340;27;20028;-93
2022/08/10 04:16:51;;;;;;;9.02;3.22;;;;;;;18.75;100.00;99452.53;5127967;27;20034;-91
2022/08/10 04:19:18;;;;;;;9.35;2.92;;;;;;;18.80;100.00;99447.09;5129567;27;20109;-92
2022/08/10 04:21:55;;;;;;;9.88;2.78;;;;;;;18.83;100.00;99441.69;5128132;27;20565;-93
2022/08/10 04:24:25;;;;;;;11.38;3.60;;;;;;;18.83;100.00;99445.22;5125046;27;20027;-93
2022/08/10 04:26:50;;;;;;;8.52;2.83;;;;;;;18.80;100.00;99441.81;5124847;27;20597;-93
2022/08/10 04:29:16;;;;;;;9.07;3.20;;;;;;;18.74;100.00;99453.44;5123888;27;20066;-91
2022/08/10 04:31:43;;;;;;;9.48;3.13;;;;;;;18.77;100.00;99451.56;5114521;27;20035;-92
2022/08/10 04:34:10;;;;;;;9.85;3.05;;;;;;;18.70;100.00;99444.72;5118811;27;20042;-93
2022/08/10 04:36:38;;;;;;;8.50;2.75;;;;;;;18.55;100.00;99442.56;5127090;27;20126;-90
2022/08/10 04:39:04;;;;;;;10.10;2.90;;;;;;;18.80;100.00;99440.00;5129631;27;20031;-93
2022/08/10 04:41:30;;;;;;;8.45;3.00;;;;;;;18.58;100.00;99447.78;5120036;27;20041;-93
2022/08/10 04:43:55;;;;;;;7.78;2.92;;;;;;;18.95;100.00;99443.13;5120391;27;20043;-93
2022/08/10 04:46:21;;;;;;;12.45;3.42;;;;;;;18.60;100.00;99435.38;5122417;27;20019;-92
2022/08/10 04:48:46;;;;;;;9.25;2.70;;;;;;;18.58;100.00;99443.34;5129851;27;20035;-92
2022/08/10 04:51:16;;;;;;;8.13;2.90;;;;;;;18.56;100.00;99445.16;5124439;27;20058;-92
2022/08/10 04:53:42;;;;;;;11.20;3.47;;;;;;;18.83;100.00;99437.28;5129883;27;20096;-92
2022/08/10 04:56:07;;;;;;;8.93;3.22;;;;;;;18.68;100.00;99446.56;5116904;27;20047;-93
2022/08/10 04:58:34;;;;;;;9.65;3.50;;;;;;;18.49;100.00;99448.03;5128351;27;20027;-90
2022/08/10 05:00:59;;;;;;;8.73;3.22;;;;;;;18.51;100.00;99443.56;5125347;27;20035;-93
2022/08/10 05:03:25;;;;;;;9.18;3.47;;;;;;;18.62;100.00;99436.16;5121975;27;20739;-90
2022/08/10 05:05:50;;;;;;;11.57;3.50;;;;;;;18.54;100.00;99443.50;5122848;27;20043;-91
2022/08/10 05:08:18;;;;;;;10.43;3.80;;;;;;;18.50;100.00;99440.06;5122599;27;20027;-90
2022/08/10 05:10:43;;;;;;;9.88;3.20;;;;;;;18.67;100.00;99436.91;5120340;27;20355;-91
2022/08/10 05:13:09;;;;;;;9.40;3.55;;;;;;;18.56;100.00;99439.00;5128284;27;20042;-90
2022/08/10 05:15:35;;;;;;;8.30;3.28;;;;;;;18.80;100.00;99433.88;5116473;27;20065;-89
2022/08/10 05:18:00;;;;;;;10.55;3.63;;;;;;;18.76;100.00;99426.06;5126339;27;20051;-91
2022/08/10 05:20:26;;;;;;;9.52;3.40;;;;;;;18.68;100.00;99428.06;5110653;27;20028;-91
2022/08/10 05:22:51;;;;;;;9.13;3.40;;;;;;;18.73;100.00;99423.50;5117263;27;20091;-91
2022/08/10 05:25:18;;;;;;;10.45;3.20;;;;;;;18.93;100.00;99429.97;5121473;27;20031;-91
2022/08/10 05:27:45;;;;;;;8.50;3.10;;;;;;;18.91;100.00;99431.78;5128470;27;20030;-91
2022/08/10 05:30:21;;;;;;;8.85;3.53;;;;;;;18.92;100.00;99433.50;5127203;27;20161;-92
2022/08/10 05:32:47;;;;;;;8.45;3.13;;;;;;;19.03;100.00;99428.75;5124460;27;20027;-91
2022/08/10 05:35:13;;;;;;;10.50;3.22;;;;;;;19.09;100.00;99430.31;5113961;27;20432;-92
2022/08/10 05:37:40;;;;;;;7.82;3.03;;;;;;;19.19;100.00;99430.88;5126957;27;20051;-91
2022/08/10 05:40:07;;;;;;;7.43;3.03;;;;;;;19.11;100.00;99433.78;5125081;27;20030;-91
2022/08/10 05:42:32;;;;;;;8.88;2.97;;;;;;;19.23;100.00;99432.50;5127696;27;20456;-91
2022/08/10 05:44:58;;;;;;;8.50;2.83;;;;;;;19.33;100.00;99436.56;5124234;27;20030;-92
2022/08/10 05:47:24;;;;;;;8.52;2.83;;;;;;;19.41;100.00;99431.84;5120310;27;20027;-90
2022/08/10 05:49:51;;;;;;;9.43;3.28;;;;;;;19.42;100.00;99432.75;5120550;27;20260;-91
2022/08/10 05:53:02;;;;;;;7.60;2.80;;;;;;;19.45;100.00;99433.47;5125895;27;20023;-89
2022/08/10 05:55:29;;;;;;;9.32;2.80;;;;;;;19.37;100.00;99432.91;5115652;27;20047;-92
2022/08/10 05:57:57;;;;;;;7.85;2.85;;;;;;;19.64;100.00;99430.22;5119574;27;20028;-92
2022/08/10 06:00:24;;;;;;;8.93;2.85;;;;;;;20.04;100.00;99439.38;5123444;27;20122;-91
2022/08/10 06:02:56;;;;;;;8.70;2.97;;;;;;;19.80;100.00;99438.47;5127331;27;20255;-91
2022/08/10 06:05:29;;;;;;;6.75;2.60;;;;;;;19.81;100.00;99442.88;5126404;27;20050;-92
2022/08/10 06:10:30;;;;;;;7.82;2.70;;;;;;;19.83;100.00;99446.31;5107978;27;20153;-91
2022/08/10 06:15:45;;;;;;;8.27;2.70;;;;;;;19.90;100.00;99434.59;5126893;27;20810;-91
2022/08/10 06:18:13;;;;;;;10.02;2.50;;;;;;;19.71;100.00;99436.16;5126488;27;20307;-91
2022/08/10 06:20:38;;;;;;;7.88;2.50;;;;;;;19.78;100.00;99435.84;5125349;27;20038;-92
2022/08/10 06:23:05;;;;;;;8.90;2.75;;;;;;;19.76;100.00;99432.41;5126793;27;20030;-92
2022/08/10 06:25:31;;;;;;;7.90;2.67;;;;;;;19.86;100.00;99437.41;5120299;27;20059;-91
2022/08/10 06:27:59;;;;;;;8.18;2.47;;;;;;;19.87;100.00;99433.84;5116316;27;20039;-91
2022/08/10 06:30:27;;;;;;;8.02;2.17;;;;;;;20.11;100.00;99437.34;5117375;27;20027;-92
2022/08/10 06:32:57;;;;;;;7.15;2.10;;;;;;;19.95;100.00;99443.22;5122089;27;20018;-92
2022/08/10 06:35:27;;;;;;;7.50;2.33;;;;;;;20.38;100.00;99446.03;5119404;27;20823;-92
2022/08/10 06:37:56;;;;;;;8.00;2.25;;;;;;;20.59;100.00;99448.78;5125291;27;20023;-92
2022/08/10 06:40:26;;;;;;;7.55;2.08;;;;;;;20.85;100.00;99446.91;5120937;27;20567;-91
2022/08/10 06:42:53;;;;;;;8.13;2.40;;;;;;;20.38;100.00;99451.34;5119404;27;20033;-91
2022/08/10 06:45:25;;;;;;;8.80;2.05;;;;;;;20.72;100.00;99444.75;5115489;27;20106;-92
2022/08/10 06:47:58;;;;;;;10.38;2.40;;;;;;;20.87;100.00;99442.44;5125867;27;20057;-91
2022/08/10 06:50:36;;;;;;;8.75;2.38;;;;;;;20.88;100.00;99446.81;5115234;27;20031;-92
2022/08/10 06:53:06;;;;;;;6.70;2.20;;;;;;;20.72;100.00;99443.91;5122873;27;20034;-92
2022/08/10 06:55:33;;;;;;;6.57;2.10;;;;;;;20.65;100.00;99445.88;5118457;28;20808;-91
2022/08/10 06:58:00;;;;;;;6.38;2.10;;;;;;;20.91;100.00;99447.53;5117132;28;20043;-92
2022/08/10 07:00:28;;;;;;;9.50;2.45;;;;;;;21.06;100.00;99442.53;5115857;28;20015;-91
2022/08/10 07:02:56;;;;;;;8.32;2.15;;;;;;;21.22;100.00;99446.25;5123142;28;20548;-92
2022/08/10 07:05:26;;;;;;;9.68;2.17;;;;;;;21.18;100.00;99444.66;5118913;28;20042;-93
2022/08/10 07:07:55;;;;;;;7.45;2.10;;;;;;;21.54;100.00;99445.88;5116875;28;20059;-91
2022/08/10 07:10:24;;;;;;;8.85;2.00;;;;;;;21.37;100.00;99446.56;5117393;28;20466;-90
2022/08/10 07:12:53;;;;;;;7.32;2.25;;;;;;;21.30;100.00;99440.66;5119540;28;20038;-91
2022/08/10 07:15:20;;;;;;;6.45;2.03;;;;;;;21.75;100.00;99433.44;5117765;27;20023;-91
2022/08/10 07:17:47;;;;;;;7.13;2.40;;;;;;;21.83;100.00;99442.78;5130356;27;20038;-94
2022/08/10 07:20:18;;;;;;;7.85;2.10;;;;;;;21.43;100.00;99444.53;5127082;27;20489;-92
2022/08/10 07:22:50;;;;;;;9.65;2.25;;;;;;;21.70;100.00;99441.63;5120892;27;20027;-91
2022/08/10 07:25:24;;;;;;;6.20;2.10;;;;;;;21.68;100.00;99439.97;5118693;27;20035;-93
2022/08/10 07:27:55;;;;;;;6.18;2.17;;;;;;;21.87;100.00;99440.88;5121044;27;20282;-91
2022/08/10 07:30:21;;;;;;;6.88;2.38;;;;;;;21.79;100.00;99441.19;5119434;27;20084;-91
2022/08/10 07:32:49;;;;;;;8.82;2.05;;;;;;;21.97;100.00;99443.97;5121906;27;20164;-92
2022/08/10 07:35:17;;;;;;;7.25;2.00;;;;;;;22.17;100.00;99440.41;5125215;27;20035;-91
2022/08/10 07:37:48;;;;;;;7.78;2.13;;;;;;;22.13;100.00;99436.19;5145290;27;20486;-92
2022/08/10 07:40:17;;;;;;;6.93;2.20;;;;;;;22.04;100.00;99436.59;5125230;27;20061;-91
2022/08/10 07:42:46;;;;;;;7.78;2.10;;;;;;;22.01;100.00;99444.72;5127762;27;20079;-91
2022/08/10 07:45:12;;;;;;;7.22;2.15;;;;;;;22.22;100.00;99442.88;5121922;27;20030;-91
2022/08/10 07:48:00;;;;;;;8.05;2.15;;;;;;;22.35;100.00;99438.72;5126204;27;20035;-93
2022/08/10 07:50:28;;;;;;;10.00;2.20;;;;;;;22.45;100.00;99441.81;5120902;27;20023;-90
2022/08/10 07:53:00;;;;;;;7.45;2.17;;;;;;;23.03;100.00;99446.09;5120362;27;20075;-91
2022/08/10 07:55:26;;;;;;;6.25;2.10;;;;;;;22.62;100.00;99447.19;5120837;27;20039;-90
2022/08/10 07:57:54;;;;;;;6.47;2.40;;;;;;;22.70;100.00;99441.53;5126145;27;20035;-92
2022/08/10 08:00:21;;;;;;;7.70;2.55;;;;;;;22.85;100.00;99445.22;5128658;27;20105;-92
2022/08/10 08:02:53;;;;;;;6.85;2.25;;;;;;;22.92;100.00;99445.78;5117591;27;20056;-92
2022/08/10 08:05:23;;;;;;;7.75;2.13;;;;;;;22.94;100.00;99450.09;5127593;27;20084;-91
2022/08/10 08:07:50;;;;;;;7.75;2.40;;;;;;;22.89;100.00;99445.94;5124161;27;20031;-90
2022/08/10 08:10:17;;;;;;;8.02;2.25;;;;;;;23.40;100.00;99443.44;5120419;27;20032;-91
2022/08/10 08:12:44;;;;;;;7.28;2.15;;;;;;;23.52;100.00;99451.66;5125915;27;20039;-92
2022/08/10 08:15:12;;;;;;;8.07;2.40;;;;;;;23.09;100.00;99450.25;5120462;27;20050;-92
2022/08/10 08:17:40;;;;;;;10.52;2.20;;;;;;;23.51;100.00;99444.59;5124545;27;20031;-90
2022/08/10 08:20:06;;;;;;;9.48;2.78;;;;;;;23.73;100.00;99450.63;5127319;27;20604;-91
2022/08/10 08:22:33;;;;;;;8.93;2.15;;;;;;;23.80;100.00;99447.56;5140480;27;20628;-90
2022/08/10 08:25:00;;;;;;;10.07;2.35;;;;;;;23.69;100.00;99456.09;5123176;27;20033;-91
2022/08/10 08:27:28;;;;;;;8.82;2.67;;;;;;;23.68;100.00;99443.72;5130062;27;20061;-92
2022/08/10 08:29:54;;;;;;;10.80;2.60;;;;;;;23.66;100.00;99453.63;5121978;27;20726;-90
2022/08/10 08:32:26;;;;;;;8.73;2.47;;;;;;;23.60;100.00;99448.59;5140459;27;20023;-92
2022/08/10 08:34:55;;;;;;;9.55;2.25;;;;;;;23.99;100.00;99444.81;5122447;27;20108;-92
2022/08/10 08:37:24;;;;;;;9.15;2.20;;;;;;;24.05;100.00;99450.75;5126664;27;20069;-92
2022/08/10 08:39:50;;;;;;;7.20;2.60;;;;;;;24.28;100.00;99446.84;5121818;27;20031;-91
2022/08/10 08:42:39;;;;;;;7.10;2.22;;;;;;;24.52;100.00;99450.81;5122546;27;20026;-93
2022/08/10 08:45:16;;;;;;;8.55;2.40;;;;;;;24.29;100.00;99448.56;5105736;28;20038;-93
2022/08/10 08:47:58;;;;;;;8.02;2.20;;;;;;;24.62;100.00;99450.31;5099692;28;20044;-90
2022/08/10 08:50:48;;;;;;;7.82;2.53;;;;;;;24.91;100.00;99445.16;5097999;28;20046;-89
2022/08/10 08:53:35;;;;;;;7.97;2.38;;;;;;;24.33;100.00;99440.31;5100109;28;20065;-91
2022/08/10 08:56:07;;;;;;;7.53;2.40;;;;;;;24.65;100.00;99439.50;5096485;28;20043;-91
2022/08/10 08:59:04;;;;;;;6.78;2.42;;;;;;;24.20;100.00;99441.91;5086346;28;20059;-92
2022/08/10 09:02:04;;;;;;;9.82;2.40;;;;;;;24.31;100.00;99441.34;5100931;28;20028;-91
2022/08/10 09:04:58;;;;;;;6.53;2.30;;;;;;;24.63;100.00;99431.56;5100427;27;20036;-92
2022/08/10 09:07:44;;;;;;;10.75;3.08;;;;;;;24.71;100.00;99433.81;5090402;28;20078;-91
2022/08/10 09:10:29;;;;;;;7.65;2.17;;;;;;;24.91;100.00;99435.34;5082817;28;20457;-91
2022/08/10 09:13:00;;;;;;;7.75;2.30;;;;;;;24.91;100.00;99435.34;5078329;28;20146;-91
2022/08/10 09:15:35;;;;;;;8.27;2.60;;;;;;;24.66;100.00;99435.88;5096884;27;20040;-91
2022/08/10 09:18:18;;;;;;;7.55;2.33;;;;;;;24.67;100.00;99434.94;5100409;28;20036;-90
2022/08/10 09:21:09;;;;;;;6.95;2.20;;;;;;;24.84;100.00;99429.50;5095952;28;20035;-89
2022/08/10 09:23:47;;;;;;;6.80;2.22;;;;;;;24.89;100.00;99429.25;5128212;27;20114;-90
2022/08/10 09:26:24;;;;;;;10.90;2.67;;;;;;;25.37;100.00;99423.81;5127653;27;20029;-91
2022/08/10 09:28:59;;;;;;;9.57;2.33;;;;;;;25.43;100.00;99426.13;5120414;27;20030;-93
2022/08/10 09:31:32;;;;;;;8.73;2.42;;;;;;;25.61;100.00;99428.63;5129718;27;20645;-91
2022/08/10 09:34:26;;;;;;;8.88;2.17;;;;;;;25.21;100.00;99423.84;5122194;27;20031;-92
2022/08/10 09:37:15;;;;;;;7.75;2.30;;;;;;;25.67;100.00;99422.91;5128735;27;20041;-90
2022/08/10 09:40:02;;;;;;;6.20;2.13;;;;;;;25.41;100.00;99422.66;5122018;27;20041;-91
2022/08/10 09:42:36;;;;;;;8.90;2.45;;;;;;;25.46;100.00;99425.09;5126772;27;20042;-93
2022/08/10 09:45:13;;;;;;;6.20;2.20;;;;;;;25.82;100.00;99421.97;5122871;27;20023;-92
2022/08/10 09:48:04;;;;;;;6.70;2.20;;;;;;;25.90;100.00;99427.72;5142283;27;20031;-93
2022/08/10 09:51:07;;;;;;;8.43;2.22;;;;;;;26.00;100.00;99424.44;5119557;27;20031;-92
2022/08/10 09:53:41;;;;;;;9.95;2.58;;;;;;;25.53;100.00;99419.25;5123409;27;20035;-92
2022/08/10 09:56:34;;;;;;;9.63;2.28;;;;;;;25.72;100.00;99412.78;5116895;27;20037;-92
2022/08/10 09:59:13;;;;;;;8.27;2.05;;;;;;;25.87;100.00;99417.22;5124543;27;20974;-91
2022/08/10 10:02:02;;;;;;;6.72;2.10;;;;;;;26.42;100.00;99414.72;5130624;27;20035;-96
2022/08/10 10:04:45;;;;;;;8.30;2.50;;;;;;;26.22;100.00;99415.97;5135283;27;20031;-96
2022/08/10 10:07:24;;;;;;;8.00;2.10;;;;;;;25.83;100.00;99413.00;5127207;27;20031;-94
2022/08/10 10:09:58;;;;;;;6.45;2.08;;;;;;;26.30;100.00;99418.16;5116837;27;20130;-90
2022/08/10 10:12:58;;;;;;;8.15;2.25;;;;;;;26.06;98.67;99406.25;5121035;27;20054;-91
2022/08/10 10:15:33;;;;;;;8.15;2.00;;;;;;;26.30;100.00;99402.13;5129224;27;20049;-91
2022/08/10 10:18:02;;;;;;;7.90;1.98;;;;;;;26.60;98.65;99396.59;5120393;27;20517;-91
2022/08/10 10:20:39;;;;;;;6.65;2.00;;;;;;;27.27;100.00;99397.59;5122901;27;20038;-91
2022/08/10 10:23:23;;;;;;;8.80;1.90;;;;;;;27.44;92.14;99402.66;5117146;27;20030;-91
2022/08/10 10:26:07;;;;;;;7.15;1.90;;;;;;;28.80;81.34;99398.41;5117248;27;20082;-92
2022/08/10 10:28:58;;;;;;;8.15;1.98;;;;;;;28.36;73.84;99403.38;5127376;27;20029;-91
2022/08/10 10:31:31;;;;;;;8.30;1.88;;;;;;;28.53;80.91;99390.53;5125614;27;20121;-92
2022/08/10 10:34:17;;;;;;;7.95;2.40;;;;;;;28.36;71.96;99394.47;5122950;27;20027;-90
2022/08/10 10:36:44;;;;;;;6.13;2.10;;;;;;;28.07;69.43;99394.75;5138437;27;21048;-92
2022/08/10 10:39:15;;;;;;;7.25;2.35;;;;;;;29.33;70.10;99395.34;5119499;27;20031;-90
2022/08/10 10:42:22;;;;;;;8.45;1.98;;;;;;;29.65;66.84;99392.00;5118488;27;20714;-91
2022/08/10 10:45:09;;;;;;;7.15;2.40;;;;;;;29.24;63.69;99390.66;5122052;27;20461;-91
2022/08/10 10:47:58;;;;;;;8.20;2.20;;;;;;;29.76;66.89;99383.09;5122170;27;20471;-91
2022/08/10 10:50:46;;;;;;;6.78;2.00;;;;;;;29.67;59.66;99391.88;5117343;27;20059;-91
2022/08/10 10:53:33;;;;;;;9.35;2.33;;;;;;;29.82;61.10;99389.81;5114493;27;20039;-91
2022/08/10 10:56:15;;;;;;;7.22;2.38;;;;;;;29.84;60.58;99386.06;5117910;28;20169;-92
2022/08/10 10:59:19;;;;;;;7.18;2.10;;;;;;;29.85;68.97;99381.53;5119856;27;20032;-91
2022/08/10 11:02:08;;;;;;;7.45;2.40;;;;;;;29.88;63.82;99379.47;5115079;28;20130;-92
2022/08/10 11:05:10;;;;;;;7.95;2.40;;;;;;;30.13;67.68;99369.41;5122954;28;20023;-92
2022/08/10 11:07:51;;;;;;;6.90;2.20;;;;;;;30.07;66.84;99368.06;5124866;28;20087;-92
2022/08/10 11:10:45;;;;;;;8.10;2.17;;;;;;;31.18;60.56;99362.63;5115996;28;20035;-91
2022/08/10 11:13:17;;;;;;;6.28;2.20;;;;;;;30.98;64.39;99357.94;5121786;28;20526;-91
2022/08/10 11:15:56;;;;;;;6.20;2.37;;;;;;;31.05;60.90;99362.81;5118241;28;20035;-91
2022/08/10 11:18:34;;;;;;;7.78;2.13;;;;;;;31.21;53.82;99363.22;5125636;27;20055;-91
2022/08/10 11:21:19;;;;;;;8.70;2.25;;;;;;;31.20;53.54;99368.75;5120509;28;20057;-89
2022/08/10 11:24:26;;;;;;;8.27;2.30;;;;;;;31.15;52.53;99355.69;5120955;28;20023;-90
2022/08/10 11:27:15;;;;;;;8.40;2.10;;;;;;;30.00;57.64;99366.84;5108379;28;20448;-91
2022/08/10 11:29:51;;;;;;;7.97;2.38;;;;;;;30.19;66.40;99363.53;5117627;28;20412;-90
2022/08/10 11:33:04;;;;;;;6.18;1.88;;;;;;;29.78;64.40;99355.09;5119991;27;20150;-91
2022/08/10 11:35:43;;;;;;;7.55;2.20;;;;;;;29.70;60.60;99359.34;5087258;28;20032;-91
2022/08/10 11:38:45;;;;;;;6.22;2.10;;;;;;;30.29;59.61;99359.09;5085274;28;20031;-89
2022/08/10 11:41:46;;;;;;;7.60;2.38;;;;;;;29.89;59.94;99356.09;5102318;28;20051;-91
2022/08/10 11:44:28;;;;;;;7.38;2.28;;;;;;;30.07;64.09;99345.69;5093895;28;20040;-90
2022/08/10 11:47:11;;;;;;;8.80;2.35;;;;;;;30.76;72.83;99355.31;5085631;28;20032;-91
2022/08/10 11:50:09;;;;;;;7.38;2.25;;;;;;;29.91;69.27;99363.06;5097636;28;20801;-92
2022/08/10 11:52:59;;;;;;;7.85;2.30;;;;;;;30.62;60.55;99357.34;5086672;28;20043;-90
2022/08/10 11:55:31;;;;;;;7.80;2.17;;;;;;;30.43;65.00;99355.31;5096767;28;20048;-91
2022/08/10 12:01:09;;;;;;;8.30;2.08;;;;;;;30.77;63.60;99359.72;5096933;28;20092;-90